Time;durP1;ratioP1;P1;durP2;ratioP2;P2;SDS_P1;SDS_P2;PMS_P1;PMS_P2;Temp;Humidity;BMP_temperature;BMP_pressure;BME280_temperature;BME280_humidity;BME280_pressure;Samples;Min_cycle;Max_cycle;Signal;HPM_P1;HPM_P2
2023/10/15 00:00:12;;;;;;;;;;;19.00;75.20;;;;;;5012329;27;86530;-38
2023/10/15 00:02:38;;;;;;;;;;;19.00;75.30;;;;;;5021343;27;84810;-39
2023/10/15 00:05:05;;;;;;;;;;;19.00;75.30;;;;;;5018156;27;85325;-38
2023/10/15 00:07:31;;;;;;;;;;;19.00;75.40;;;;;;5016450;27;85371;-38
2023/10/15 00:09:56;;;;;;;;;;;19.00;75.50;;;;;;4998443;27;84853;-39
2023/10/15 00:12:22;;;;;;;;;;;19.00;75.30;;;;;;5013395;27;84389;-46
2023/10/15 00:14:47;;;;;;;;;;;19.00;75.50;;;;;;5013689;27;85063;-40
2023/10/15 00:17:13;;;;;;;;;;;19.00;75.40;;;;;;5018682;27;86473;-39
2023/10/15 00:19:39;;;;;;;;;;;18.90;75.40;;;;;;5017047;27;87223;-42
2023/10/15 00:22:07;;;;;;;;;;;18.90;75.30;;;;;;5014461;27;84889;-39
2023/10/15 00:24:33;;;;;;;;;;;18.90;75.30;;;;;;5018343;27;85817;-39
2023/10/15 00:26:58;;;;;;;;;;;18.90;75.30;;;;;;5011991;27;84655;-42
2023/10/15 00:29:25;;;;;;;;;;;18.90;75.20;;;;;;5019503;27;84374;-39
2023/10/15 00:31:50;;;;;;;;;;;18.90;75.10;;;;;;5012676;27;84592;-40
2023/10/15 00:34:17;;;;;;;;;;;18.90;75.10;;;;;;5012009;27;83634;-39
2023/10/15 00:36:43;;;;;;;;;;;18.90;75.10;;;;;;5011716;27;90978;-43
2023/10/15 00:39:19;;;;;;;;;;;18.90;75.00;;;;;;5017264;27;86170;-40
2023/10/15 00:41:47;;;;;;;;;;;18.90;75.00;;;;;;5013304;27;85286;-39
2023/10/15 00:44:14;;;;;;;;;;;18.90;75.00;;;;;;5011343;27;85580;-40
2023/10/15 00:46:40;;;;;;;;;;;18.90;75.00;;;;;;5019357;27;84217;-40
2023/10/15 00:49:10;;;;;;;;;;;18.90;75.00;;;;;;5015452;27;84250;-39
2023/10/15 00:51:40;;;;;;;;;;;18.90;75.00;;;;;;5012104;27;84341;-39
2023/10/15 00:54:12;;;;;;;;;;;18.90;75.00;;;;;;5009322;27;84287;-39
2023/10/15 00:56:38;;;;;;;;;;;18.90;75.00;;;;;;5018797;27;87719;-40
2023/10/15 00:59:08;;;;;;;;;;;18.90;75.00;;;;;;5010717;27;83597;-40
2023/10/15 01:01:35;;;;;;;;;;;18.80;74.80;;;;;;5017695;27;84958;-39
2023/10/15 01:04:01;;;;;;;;;;;18.80;74.70;;;;;;5011783;27;89281;-40
2023/10/15 01:06:30;;;;;;;;;;;18.80;74.90;;;;;;5015694;27;88769;-41
2023/10/15 01:09:08;;;;;;;;;;;18.80;74.90;;;;;;5013318;27;84608;-40
2023/10/15 01:11:37;;;;;;;;;;;18.80;74.80;;;;;;5016034;27;84320;-39
2023/10/15 01:14:03;;;;;;;;;;;18.80;74.80;;;;;;5011549;27;85830;-40
2023/10/15 01:16:36;;;;;;;;;;;18.80;74.90;;;;;;5018063;27;86913;-39
2023/10/15 01:19:31;;;;;;;;;;;18.80;74.80;;;;;;5012153;27;84448;-41
2023/10/15 01:24:22;;;;;;;;;;;18.70;74.60;;;;;;5017311;27;83605;-41
2023/10/15 01:26:59;;;;;;;;;;;18.70;74.70;;;;;;5009795;27;84395;-39
2023/10/15 01:29:28;;;;;;;;;;;18.70;74.70;;;;;;5020356;27;86253;-41
2023/10/15 01:31:58;;;;;;;;;;;18.70;75.30;;;;;;5012860;27;85749;-40
2023/10/15 01:34:24;;;;;;;;;;;18.60;74.50;;;;;;5014046;27;84286;-40
2023/10/15 01:36:51;;;;;;;;;;;18.70;74.60;;;;;;5017251;27;86127;-39
2023/10/15 01:39:22;;;;;;;;;;;18.70;74.50;;;;;;5013529;27;85815;-40
2023/10/15 01:41:55;;;;;;;;;;;18.70;74.50;;;;;;5010373;27;84389;-39
2023/10/15 01:44:20;;;;;;;;;;;18.70;74.50;;;;;;5012184;27;84864;-39
2023/10/15 01:46:59;;;;;;;;;;;18.70;74.50;;;;;;5018990;27;85176;-39
2023/10/15 01:49:33;;;;;;;;;;;18.60;74.50;;;;;;5021482;27;84821;-40
2023/10/15 01:52:09;;;;;;;;;;;18.70;74.40;;;;;;5017621;27;83686;-40
2023/10/15 01:54:35;;;;;;;;;;;18.60;74.50;;;;;;5014873;27;85122;-41
2023/10/15 01:57:06;;;;;;;;;;;18.60;74.50;;;;;;5010739;27;90144;-41
2023/10/15 01:59:47;;;;;;;;;;;18.60;74.50;;;;;;5011348;27;84902;-40
2023/10/15 02:02:14;;;;;;;;;;;18.60;74.50;;;;;;5012678;27;84667;-42
2023/10/15 02:04:46;;;;;;;;;;;18.60;74.60;;;;;;5015948;27;85153;-40
2023/10/15 02:07:16;;;;;;;;;;;18.50;74.50;;;;;;5003834;27;86056;-39
2023/10/15 02:09:43;;;;;;;;;;;18.60;74.50;;;;;;5015880;27;84367;-41
2023/10/15 02:12:12;;;;;;;;;;;18.50;74.30;;;;;;5004836;27;85638;-40
2023/10/15 02:14:41;;;;;;;;;;;18.50;74.50;;;;;;5011566;27;85415;-40
2023/10/15 02:17:13;;;;;;;;;;;18.50;74.40;;;;;;5014969;27;86737;-40
2023/10/15 02:19:42;;;;;;;;;;;18.50;74.40;;;;;;5014280;27;84686;-40
2023/10/15 02:22:12;;;;;;;;;;;18.50;74.40;;;;;;5016011;27;87468;-40
2023/10/15 02:24:38;;;;;;;;;;;18.50;74.50;;;;;;5014288;27;84422;-40
2023/10/15 02:27:06;;;;;;;;;;;18.40;74.40;;;;;;5013398;27;84772;-39
2023/10/15 02:32:06;;;;;;;;;;;18.40;74.40;;;;;;5011919;27;86398;-41
2023/10/15 02:34:32;;;;;;;;;;;18.40;74.40;;;;;;5016934;27;84203;-39
2023/10/15 02:37:04;;;;;;;;;;;18.40;74.40;;;;;;5017047;27;84698;-40
2023/10/15 02:39:36;;;;;;;;;;;18.40;74.40;;;;;;5009206;27;84194;-40
2023/10/15 02:42:02;;;;;;;;;;;18.40;74.30;;;;;;5012189;27;85212;-39
2023/10/15 02:44:32;;;;;;;;;;;18.40;74.30;;;;;;5011710;27;84404;-40
2023/10/15 02:49:53;;;;;;;;;;;18.40;74.30;;;;;;5017591;27;84849;-40
2023/10/15 02:52:19;;;;;;;;;;;18.40;74.40;;;;;;5007086;27;85101;-40
2023/10/15 02:54:45;;;;;;;;;;;18.40;74.20;;;;;;5017050;27;84505;-39
2023/10/15 02:57:21;;;;;;;;;;;18.40;74.20;;;;;;5012071;27;84353;-40
2023/10/15 02:59:53;;;;;;;;;;;18.30;74.20;;;;;;5017801;27;84604;-40
2023/10/15 03:02:19;;;;;;;;;;;18.30;74.00;;;;;;5007891;27;83975;-40
2023/10/15 03:04:55;;;;;;;;;;;18.30;74.20;;;;;;5007767;27;83759;-40
2023/10/15 03:07:33;;;;;;;;;;;18.30;74.20;;;;;;5014151;27;84095;-40
2023/10/15 03:09:59;;;;;;;;;;;18.30;74.20;;;;;;5012349;27;87149;-40
2023/10/15 03:12:25;;;;;;;;;;;18.30;74.00;;;;;;5004887;27;85870;-40
2023/10/15 03:14:54;;;;;;;;;;;18.30;74.20;;;;;;5015715;27;84514;-40
2023/10/15 03:17:25;;;;;;;;;;;18.30;74.20;;;;;;5008678;27;84287;-39
2023/10/15 03:20:10;;;;;;;;;;;18.30;74.00;;;;;;5021998;27;84670;-40
2023/10/15 03:22:37;;;;;;;;;;;18.30;74.10;;;;;;5012806;27;89058;-40
2023/10/15 03:25:13;;;;;;;;;;;18.30;74.10;;;;;;5015426;27;85298;-41
2023/10/15 03:27:38;;;;;;;;;;;18.30;74.00;;;;;;5010313;27;84645;-40
2023/10/15 03:30:04;;;;;;;;;;;18.20;74.10;;;;;;5007489;27;84104;-40
2023/10/15 03:32:37;;;;;;;;;;;18.20;74.10;;;;;;5010349;27;84319;-40
2023/10/15 03:35:15;;;;;;;;;;;18.20;74.00;;;;;;5011165;27;85336;-40
2023/10/15 03:37:45;;;;;;;;;;;18.20;74.00;;;;;;5016870;27;85849;-41
2023/10/15 03:40:30;;;;;;;;;;;18.20;74.00;;;;;;5009591;27;84508;-41
2023/10/15 03:43:06;;;;;;;;;;;18.20;74.00;;;;;;5010674;27;85261;-40
2023/10/15 03:45:47;;;;;;;;;;;18.20;73.90;;;;;;5006363;27;84260;-40
2023/10/15 03:48:15;;;;;;;;;;;18.20;73.90;;;;;;5016613;27;85060;-40
2023/10/15 03:50:53;;;;;;;;;;;18.10;73.80;;;;;;5012817;27;85622;-40
2023/10/15 03:53:27;;;;;;;;;;;18.10;73.80;;;;;;5013408;27;84299;-39
2023/10/15 03:56:01;;;;;;;;;;;18.20;73.80;;;;;;5010629;27;84070;-40
2023/10/15 03:58:31;;;;;;;;;;;18.10;73.90;;;;;;5010142;27;85054;-39
2023/10/15 04:01:19;;;;;;;;;;;18.10;73.80;;;;;;5011313;27;84866;-40
2023/10/15 04:03:47;;;;;;;;;;;18.10;73.70;;;;;;5013084;27;85079;-40
2023/10/15 04:06:13;;;;;;;;;;;18.10;73.70;;;;;;5011428;27;92600;-41
2023/10/15 04:08:39;;;;;;;;;;;18.10;73.70;;;;;;5015772;27;84300;-41
2023/10/15 04:11:06;;;;;;;;;;;18.10;73.70;;;;;;5013021;27;84404;-39
2023/10/15 04:13:32;;;;;;;;;;;18.10;73.70;;;;;;5015336;27;84705;-40
2023/10/15 04:15:58;;;;;;;;;;;18.10;73.70;;;;;;5011620;27;84879;-40
2023/10/15 04:18:24;;;;;;;;;;;18.10;73.70;;;;;;5008853;27;84626;-39
2023/10/15 04:20:51;;;;;;;;;;;18.10;73.70;;;;;;5013634;27;83713;-42
2023/10/15 04:23:31;;;;;;;;;;;18.10;73.70;;;;;;5007612;27;84419;-41
2023/10/15 04:26:07;;;;;;;;;;;18.10;73.70;;;;;;4991044;27;84643;-41
2023/10/15 04:28:33;;;;;;;;;;;18.00;73.70;;;;;;5013288;27;85987;-40
2023/10/15 04:30:59;;;;;;;;;;;18.00;73.80;;;;;;5016185;27;84730;-42
2023/10/15 04:33:27;;;;;;;;;;;18.00;73.60;;;;;;5010428;27;85333;-40
2023/10/15 04:35:56;;;;;;;;;;;18.00;73.60;;;;;;5008103;27;86314;-40
2023/10/15 04:38:22;;;;;;;;;;;18.00;73.50;;;;;;5007865;27;85994;-41
2023/10/15 04:41:00;;;;;;;;;;;18.00;73.70;;;;;;5015427;27;84798;-41
2023/10/15 04:43:26;;;;;;;;;;;18.00;73.60;;;;;;5009342;27;84344;-40
2023/10/15 04:45:54;;;;;;;;;;;17.90;73.50;;;;;;5021289;27;84636;-41
2023/10/15 04:48:26;;;;;;;;;;;18.00;73.60;;;;;;4997979;27;90052;-40
2023/10/15 04:50:52;;;;;;;;;;;17.90;73.50;;;;;;5009605;27;84625;-41
2023/10/15 04:53:23;;;;;;;;;;;17.90;73.40;;;;;;5010567;27;85187;-40
2023/10/15 04:55:50;;;;;;;;;;;17.90;73.50;;;;;;5012265;27;84988;-40
2023/10/15 04:58:15;;;;;;;;;;;17.90;73.40;;;;;;5009947;27;84436;-42
2023/10/15 05:00:41;;;;;;;;;;;17.90;73.40;;;;;;5015648;27;84575;-39
2023/10/15 05:03:09;;;;;;;;;;;17.90;73.50;;;;;;5014672;27;84300;-40
2023/10/15 05:05:34;;;;;;;;;;;17.90;73.50;;;;;;5009640;27;86914;-40
2023/10/15 05:08:00;;;;;;;;;;;17.90;73.50;;;;;;5011180;27;86332;-40
2023/10/15 05:10:50;;;;;;;;;;;17.90;73.50;;;;;;5014989;27;83650;-39
2023/10/15 05:13:19;;;;;;;;;;;17.90;73.50;;;;;;5013879;27;85026;-40
2023/10/15 05:15:48;;;;;;;;;;;17.90;73.30;;;;;;5014674;27;85346;-40
2023/10/15 05:18:15;;;;;;;;;;;17.80;73.30;;;;;;5009114;27;85365;-41
2023/10/15 05:20:41;;;;;;;;;;;17.80;73.30;;;;;;5014299;27;84326;-38
2023/10/15 05:23:06;;;;;;;;;;;17.80;73.30;;;;;;5015034;27;85035;-39
2023/10/15 05:25:32;;;;;;;;;;;17.80;73.30;;;;;;5008143;27;84475;-38
2023/10/15 05:27:59;;;;;;;;;;;17.80;73.20;;;;;;5016402;27;85331;-38
2023/10/15 05:30:26;;;;;;;;;;;17.80;73.10;;;;;;5014107;27;84707;-38
2023/10/15 05:32:51;;;;;;;;;;;17.80;73.30;;;;;;5013067;27;89285;-38
2023/10/15 05:35:17;;;;;;;;;;;17.80;73.30;;;;;;5011395;27;83524;-38
2023/10/15 05:37:44;;;;;;;;;;;17.80;73.30;;;;;;5013886;27;84994;-38
2023/10/15 05:40:09;;;;;;;;;;;17.80;73.20;;;;;;5015220;27;84582;-38
2023/10/15 05:42:35;;;;;;;;;;;17.70;73.10;;;;;;5006095;27;85220;-39
2023/10/15 05:45:01;;;;;;;;;;;17.70;73.30;;;;;;5021342;27;86645;-38
2023/10/15 05:47:28;;;;;;;;;;;17.70;73.10;;;;;;5014799;27;86282;-39
2023/10/15 05:49:54;;;;;;;;;;;17.70;73.10;;;;;;5013821;27;85650;-38
2023/10/15 05:52:20;;;;;;;;;;;17.70;73.30;;;;;;5010918;27;84818;-38
2023/10/15 05:54:47;;;;;;;;;;;17.70;73.20;;;;;;5015943;27;84540;-38
2023/10/15 05:57:13;;;;;;;;;;;17.70;73.10;;;;;;5015580;27;87965;-38
2023/10/15 05:59:38;;;;;;;;;;;17.70;73.30;;;;;;5014144;27;83622;-38
2023/10/15 06:02:04;;;;;;;;;;;17.70;73.10;;;;;;4996221;27;85151;-38
2023/10/15 06:04:30;;;;;;;;;;;17.70;73.10;;;;;;5020679;27;83742;-38
2023/10/15 06:06:55;;;;;;;;;;;17.70;72.90;;;;;;5012355;27;86440;-39
2023/10/15 06:09:21;;;;;;;;;;;17.60;72.90;;;;;;5020199;27;86660;-38
2023/10/15 06:11:46;;;;;;;;;;;17.60;73.00;;;;;;5013281;27;84544;-44
2023/10/15 06:14:12;;;;;;;;;;;17.60;72.90;;;;;;5016990;27;84773;-39
2023/10/15 06:16:37;;;;;;;;;;;17.60;73.10;;;;;;5013468;27;85034;-39
2023/10/15 06:19:03;;;;;;;;;;;17.60;73.10;;;;;;5021303;27;84316;-39
2023/10/15 06:21:29;;;;;;;;;;;17.60;72.90;;;;;;5012565;27;84345;-39
2023/10/15 06:23:54;;;;;;;;;;;17.60;72.90;;;;;;5000797;27;83882;-38
2023/10/15 06:26:20;;;;;;;;;;;17.60;72.60;;;;;;5017270;27;84300;-38
2023/10/15 06:28:45;;;;;;;;;;;17.60;72.80;;;;;;5009965;27;85468;-38
2023/10/15 06:31:11;;;;;;;;;;;17.60;72.90;;;;;;5016934;27;85269;-40
2023/10/15 06:33:40;;;;;;;;;;;17.60;72.70;;;;;;5008682;27;84246;-42
2023/10/15 06:36:06;;;;;;;;;;;17.60;72.80;;;;;;5015648;27;84378;-41
2023/10/15 06:38:31;;;;;;;;;;;17.60;72.70;;;;;;5016615;27;88830;-43
2023/10/15 06:40:57;;;;;;;;;;;17.60;72.60;;;;;;5018437;27;84962;-39
2023/10/15 06:43:23;;;;;;;;;;;17.60;72.80;;;;;;5010922;27;84525;-40
2023/10/15 06:45:51;;;;;;;;;;;17.50;72.60;;;;;;5017630;27;84836;-39
2023/10/15 06:48:17;;;;;;;;;;;17.60;72.60;;;;;;5014777;27;84476;-41
2023/10/15 06:50:42;;;;;;;;;;;17.60;72.60;;;;;;5011177;27;86899;-40
2023/10/15 06:53:08;;;;;;;;;;;17.60;72.60;;;;;;5021383;27;85020;-40
2023/10/15 06:55:35;;;;;;;;;;;17.60;72.50;;;;;;5012203;27;86947;-40
2023/10/15 06:58:01;;;;;;;;;;;17.60;72.50;;;;;;5022002;27;84312;-40
2023/10/15 07:00:27;;;;;;;;;;;17.60;72.30;;;;;;5010831;27;84054;-40
2023/10/15 07:02:53;;;;;;;;;;;17.60;72.10;;;;;;5012045;27;87223;-39
2023/10/15 07:05:20;;;;;;;;;;;17.60;72.40;;;;;;5014391;27;84800;-40
2023/10/15 07:07:46;;;;;;;;;;;17.60;72.60;;;;;;5013438;27;84412;-40
2023/10/15 07:10:15;;;;;;;;;;;17.60;72.40;;;;;;5014721;27;84796;-40
2023/10/15 07:12:54;;;;;;;;;;;17.60;72.40;;;;;;5018546;27;83463;-40
2023/10/15 07:15:20;;;;;;;;;;;17.60;72.10;;;;;;5020741;27;84288;-40
2023/10/15 07:17:46;;;;;;;;;;;17.60;72.10;;;;;;5016726;27;84344;-40
2023/10/15 07:20:14;;;;;;;;;;;17.60;72.20;;;;;;5017916;27;86795;-40
2023/10/15 07:22:44;;;;;;;;;;;17.60;72.00;;;;;;5003072;27;84619;-43
2023/10/15 07:25:10;;;;;;;;;;;17.60;71.90;;;;;;5009245;27;84684;-40
2023/10/15 07:27:36;;;;;;;;;;;17.60;72.00;;;;;;5006246;27;85587;-41
2023/10/15 07:30:02;;;;;;;;;;;17.60;72.10;;;;;;5012771;27;84822;-41
2023/10/15 07:32:28;;;;;;;;;;;17.60;72.00;;;;;;5017498;27;84439;-41
2023/10/15 07:34:53;;;;;;;;;;;17.60;71.70;;;;;;5007738;27;89883;-42
2023/10/15 07:37:19;;;;;;;;;;;17.60;71.60;;;;;;5014093;27;83610;-42
2023/10/15 07:39:45;;;;;;;;;;;17.60;71.50;;;;;;5004389;27;85078;-40
2023/10/15 07:42:11;;;;;;;;;;;17.60;71.70;;;;;;5006582;27;85118;-40
2023/10/15 07:44:36;;;;;;;;;;;17.70;71.50;;;;;;5018397;27;85803;-40
2023/10/15 07:47:02;;;;;;;;;;;17.70;71.60;;;;;;5013857;27;84698;-41
2023/10/15 07:49:28;;;;;;;;;;;17.70;71.70;;;;;;5013402;27;85390;-40
2023/10/15 07:51:54;;;;;;;;;;;17.70;71.60;;;;;;5008350;27;85354;-40
2023/10/15 07:54:19;;;;;;;;;;;17.70;71.80;;;;;;5005840;27;86037;-40
2023/10/15 07:56:45;;;;;;;;;;;17.70;71.90;;;;;;5008639;27;85381;-39
2023/10/15 07:59:10;;;;;;;;;;;17.70;72.00;;;;;;5016164;27;86472;-40
2023/10/15 08:01:36;;;;;;;;;;;17.60;72.00;;;;;;5019267;27;86301;-39
2023/10/15 08:04:03;;;;;;;;;;;17.70;71.60;;;;;;5010287;27;85424;-40
2023/10/15 08:06:29;;;;;;;;;;;17.70;72.10;;;;;;5009544;27;85060;-39
2023/10/15 08:08:55;;;;;;;;;;;17.70;71.90;;;;;;5021558;27;85849;-39
2023/10/15 08:11:20;;;;;;;;;;;17.70;71.90;;;;;;5019092;27;85087;-40
2023/10/15 08:13:46;;;;;;;;;;;17.70;72.20;;;;;;5011144;27;84169;-40
2023/10/15 08:16:11;;;;;;;;;;;17.70;72.20;;;;;;5008563;27;86392;-41
2023/10/15 08:18:37;;;;;;;;;;;17.70;72.40;;;;;;5017513;27;84417;-40
2023/10/15 08:21:02;;;;;;;;;;;17.70;72.50;;;;;;5010971;27;88252;-40
2023/10/15 08:23:28;;;;;;;;;;;17.60;72.80;;;;;;5013732;27;85345;-39
2023/10/15 08:25:54;;;;;;;;;;;17.60;72.90;;;;;;5024270;27;84782;-40
2023/10/15 08:28:20;;;;;;;;;;;17.60;73.20;;;;;;5018453;27;84212;-40
2023/10/15 08:30:45;;;;;;;;;;;17.60;73.40;;;;;;5016065;27;84788;-40
2023/10/15 08:33:12;;;;;;;;;;;17.60;73.20;;;;;;5013923;27;85283;-40
2023/10/15 08:35:38;;;;;;;;;;;17.70;73.30;;;;;;5015763;27;85963;-41
2023/10/15 08:38:07;;;;;;;;;;;17.70;73.10;;;;;;5026190;27;88497;-39
2023/10/15 08:40:36;;;;;;;;;;;17.70;73.00;;;;;;5024026;27;84996;-40
2023/10/15 08:43:09;;;;;;;;;;;17.70;73.10;;;;;;5009676;27;84584;-42
2023/10/15 08:45:35;;;;;;;;;;;17.70;73.30;;;;;;5026823;27;84856;-40
2023/10/15 08:48:01;;;;;;;;;;;17.70;73.30;;;;;;5023106;27;88933;-40
2023/10/15 08:50:27;;;;;;;;;;;17.70;73.70;;;;;;5010616;27;87563;-41
2023/10/15 08:52:53;;;;;;;;;;;17.70;73.40;;;;;;5016052;27;85032;-40
2023/10/15 08:55:28;;;;;;;;;;;17.70;73.50;;;;;;5016027;27;85310;-40
2023/10/15 08:57:54;;;;;;;;;;;17.70;73.50;;;;;;5019163;27;85333;-41
2023/10/15 09:00:25;;;;;;;;;;;17.70;73.40;;;;;;5017240;27;85178;-40
2023/10/15 09:02:56;;;;;;;;;;;17.80;73.80;;;;;;5015724;27;84867;-39
2023/10/15 09:05:24;;;;;;;;;;;17.80;74.30;;;;;;5009862;27;85442;-40
2023/10/15 09:07:56;;;;;;;;;;;17.80;75.10;;;;;;5017051;27;84375;-40
2023/10/15 09:10:21;;;;;;;;;;;17.90;75.70;;;;;;5013651;27;84605;-40
2023/10/15 09:12:48;;;;;;;;;;;17.90;74.70;;;;;;5000537;27;86225;-39
2023/10/15 09:15:16;;;;;;;;;;;17.80;74.20;;;;;;5001645;27;86080;-39
2023/10/15 09:18:02;;;;;;;;;;;17.80;74.30;;;;;;5009503;27;85536;-40
2023/10/15 09:20:28;;;;;;;;;;;17.90;74.60;;;;;;5000096;27;84292;-40
2023/10/15 09:22:58;;;;;;;;;;;17.90;74.40;;;;;;5004998;27;87025;-40
2023/10/15 09:25:25;;;;;;;;;;;17.90;74.20;;;;;;5002489;27;85388;-40
2023/10/15 09:27:52;;;;;;;;;;;18.00;74.30;;;;;;5002838;27;85195;-39
2023/10/15 09:30:21;;;;;;;;;;;18.00;74.30;;;;;;5005269;27;86400;-40
2023/10/15 09:32:47;;;;;;;;;;;18.00;74.80;;;;;;5002721;27;88708;-39
2023/10/15 09:35:13;;;;;;;;;;;18.00;74.70;;;;;;4998804;27;86040;-40
2023/10/15 09:37:39;;;;;;;;;;;18.00;74.70;;;;;;5004223;27;85435;-39
2023/10/15 09:40:09;;;;;;;;;;;18.00;75.00;;;;;;5005207;27;84032;-41
2023/10/15 09:42:38;;;;;;;;;;;18.10;74.70;;;;;;4998815;27;87056;-39
2023/10/15 09:45:05;;;;;;;;;;;18.10;74.60;;;;;;5003707;27;84514;-40
2023/10/15 09:47:32;;;;;;;;;;;18.00;74.70;;;;;;5003417;27;86105;-40
2023/10/15 09:49:59;;;;;;;;;;;18.10;75.40;;;;;;5010658;27;84280;-40
2023/10/15 09:52:26;;;;;;;;;;;18.10;75.10;;;;;;5007157;27;84422;-39
2023/10/15 09:54:55;;;;;;;;;;;18.10;74.90;;;;;;5017999;27;85542;-38
2023/10/15 09:57:21;;;;;;;;;;;18.10;74.80;;;;;;5015469;27;85224;-40
2023/10/15 09:59:53;;;;;;;;;;;18.10;74.40;;;;;;5016005;27;83892;-40
2023/10/15 10:02:25;;;;;;;;;;;18.20;74.80;;;;;;5021450;27;84299;-42
2023/10/15 10:05:00;;;;;;;;;;;18.20;74.20;;;;;;5010575;27;85132;-39
2023/10/15 10:07:54;;;;;;;;;;;18.20;73.80;;;;;;5004703;27;85263;-39
2023/10/15 10:10:28;;;;;;;;;;;18.20;74.30;;;;;;5015822;27;84050;-40
2023/10/15 10:12:59;;;;;;;;;;;18.20;74.70;;;;;;5004189;27;86139;-42
2023/10/15 10:15:39;;;;;;;;;;;18.20;74.40;;;;;;5009022;27;86568;-40
2023/10/15 10:18:05;;;;;;;;;;;18.30;74.10;;;;;;5010664;27;84391;-40
2023/10/15 10:20:31;;;;;;;;;;;18.30;74.00;;;;;;5005816;27;86946;-40
2023/10/15 10:23:02;;;;;;;;;;;18.20;74.40;;;;;;5007451;27;85406;-40
2023/10/15 10:25:30;;;;;;;;;;;18.30;74.30;;;;;;5013902;27;84567;-40
2023/10/15 10:28:19;;;;;;;;;;;18.30;74.00;;;;;;5014015;27;84798;-41
2023/10/15 10:30:55;;;;;;;;;;;18.20;74.00;;;;;;4996263;27;84771;-40
2023/10/15 10:33:46;;;;;;;;;;;18.30;74.40;;;;;;5009413;27;85030;-39
2023/10/15 10:36:14;;;;;;;;;;;18.30;74.90;;;;;;5014105;27;84978;-42
2023/10/15 10:38:43;;;;;;;;;;;18.30;74.50;;;;;;5012620;27;85236;-40
2023/10/15 10:41:15;;;;;;;;;;;18.30;75.00;;;;;;5006349;27;84577;-40
2023/10/15 10:43:42;;;;;;;;;;;18.40;74.80;;;;;;5014163;27;90526;-40
2023/10/15 10:46:07;;;;;;;;;;;18.30;73.90;;;;;;5009988;27;85154;-40
2023/10/15 10:48:35;;;;;;;;;;;18.30;74.20;;;;;;5003112;27;85023;-40
2023/10/15 10:51:11;;;;;;;;;;;18.30;74.80;;;;;;4999422;27;85982;-40
2023/10/15 10:53:37;;;;;;;;;;;18.30;74.80;;;;;;5010273;27;84778;-41
2023/10/15 10:56:06;;;;;;;;;;;18.40;74.70;;;;;;5014177;27;85375;-40
2023/10/15 10:58:34;;;;;;;;;;;18.40;74.80;;;;;;5021871;27;84192;-39
2023/10/15 11:01:00;;;;;;;;;;;18.40;74.50;;;;;;5004711;27;84345;-41
2023/10/15 11:03:25;;;;;;;;;;;18.40;74.20;;;;;;5001047;27;85878;-39
2023/10/15 11:05:55;;;;;;;;;;;18.30;72.80;;;;;;5028447;22;85149;-79
2023/10/15 11:08:21;;;;;;;;;;;18.40;74.20;;;;;;5018811;27;85762;-78
2023/10/15 11:10:47;;;;;;;;;;;18.40;74.40;;;;;;4999380;27;83718;-78
2023/10/15 11:13:14;;;;;;;;;;;18.50;74.00;;;;;;5018735;27;84940;-79
2023/10/15 11:15:39;;;;;;;;;;;18.60;73.70;;;;;;5038578;27;85808;-75
2023/10/15 11:18:08;;;;;;;;;;;18.60;73.90;;;;;;5020034;27;85023;-76
2023/10/15 11:20:35;;;;;;;;;;;18.60;73.30;;;;;;5021238;27;83755;-79
2023/10/15 11:23:01;;;;;;;;;;;18.60;73.30;;;;;;5045863;27;86568;-79
2023/10/15 11:25:27;;;;;;;;;;;18.60;73.40;;;;;;5023099;27;87778;-80
2023/10/15 11:27:53;;;;;;;;;;;18.80;75.10;;;;;;5008983;27;86242;-80
2023/10/15 11:30:20;;;;;;;;;;;18.90;74.30;;;;;;5031478;27;84561;-80
2023/10/15 11:32:46;;;;;;;;;;;19.00;74.30;;;;;;5037059;27;84860;-81
2023/10/15 11:35:15;;;;;;;;;;;19.00;73.80;;;;;;5030034;27;84534;-80
2023/10/15 11:37:42;;;;;;;;;;;19.10;73.40;;;;;;5035999;27;84791;-81
2023/10/15 11:40:11;;;;;;;;;;;19.10;72.50;;;;;;5035868;27;84179;-81
2023/10/15 11:42:46;;;;;;;;;;;19.20;71.90;;;;;;5032827;27;87059;-80
2023/10/15 11:45:18;;;;;;;;;;;19.20;71.10;;;;;;5029500;27;85801;-80
2023/10/15 11:47:44;;;;;;;;;;;19.20;70.90;;;;;;5028443;27;85098;-81
2023/10/15 11:50:17;;;;;;;;;;;19.10;70.20;;;;;;5043082;27;84016;-81
2023/10/15 11:52:44;;;;;;;;;;;19.20;68.90;;;;;;5039211;27;85401;-81
2023/10/15 11:55:17;;;;;;;;;;;19.20;68.50;;;;;;5045324;27;84906;-82
2023/10/15 11:57:49;;;;;;;;;;;19.10;67.30;;;;;;5043394;27;84599;-82
2023/10/15 12:00:33;;;;;;;;;;;19.10;66.30;;;;;;5025011;27;84175;-81
2023/10/15 12:02:59;;;;;;;;;;;19.10;66.10;;;;;;5026771;27;87507;-81
2023/10/15 12:05:26;;;;;;;;;;;19.20;65.50;;;;;;5022375;27;85932;-81
2023/10/15 12:07:51;;;;;;;;;;;19.20;65.30;;;;;;5040525;27;84638;-81
2023/10/15 12:10:17;;;;;;;;;;;19.20;65.00;;;;;;5027886;27;83565;-82
2023/10/15 12:12:42;;;;;;;;;;;19.20;65.00;;;;;;5043464;27;85049;-81
2023/10/15 12:15:09;;;;;;;;;;;19.20;64.80;;;;;;5033089;27;89639;-81
2023/10/15 12:17:34;;;;;;;;;;;19.20;64.90;;;;;;5020893;27;84564;-83
2023/10/15 12:20:00;;;;;;;;;;;19.20;64.40;;;;;;5024687;27;86415;-82
2023/10/15 12:22:25;;;;;;;;;;;19.20;64.00;;;;;;5027380;27;88470;-82
2023/10/15 12:24:51;;;;;;;;;;;19.20;63.60;;;;;;5030968;27;86661;-85
2023/10/15 12:27:17;;;;;;;;;;;19.30;63.50;;;;;;5028632;27;84034;-84
2023/10/15 12:29:42;;;;;;;;;;;19.30;62.90;;;;;;5025241;27;85624;-82
2023/10/15 12:32:08;;;;;;;;;;;19.30;62.40;;;;;;5021367;27;92731;-83
2023/10/15 12:34:34;;;;;;;;;;;19.30;62.10;;;;;;5038581;27;90907;-83
2023/10/15 12:37:00;;;;;;;;;;;19.10;55.30;;;;;;5041513;27;88759;-84
2023/10/15 12:39:28;;;;;;;;;;;18.90;51.20;;;;;;5043040;27;89401;-83
2023/10/15 12:41:54;;;;;;;;;;;18.90;56.20;;;;;;5024567;27;93145;-83
2023/10/15 12:44:19;;;;;;;;;;;19.00;57.10;;;;;;5026471;27;92412;-83
2023/10/15 12:46:45;;;;;;;;;;;19.00;56.30;;;;;;5034546;27;89362;-83
2023/10/15 12:49:10;;;;;;;;;;;19.10;56.10;;;;;;5045509;27;90061;-83
2023/10/15 12:51:36;;;;;;;;;;;19.20;56.20;;;;;;5026533;27;93174;-84
2023/10/15 12:54:03;;;;;;;;;;;19.20;56.10;;;;;;5029560;27;91694;-83
2023/10/15 12:56:30;;;;;;;;;;;19.30;56.30;;;;;;5050994;27;89601;-84
2023/10/15 12:58:56;;;;;;;;;;;19.30;56.70;;;;;;5054288;27;89081;-83
2023/10/15 13:01:23;;;;;;;;;;;19.20;56.70;;;;;;5043872;27;91833;-82
2023/10/15 13:03:49;;;;;;;;;;;19.10;55.90;;;;;;5065756;27;89439;-83
2023/10/15 13:06:19;;;;;;;;;;;19.10;56.60;;;;;;5048568;27;91778;-83
2023/10/15 13:08:46;;;;;;;;;;;19.10;57.20;;;;;;5053605;27;89466;-84
2023/10/15 13:11:11;;;;;;;;;;;19.10;55.70;;;;;;5045256;27;89614;-83
2023/10/15 13:13:37;;;;;;;;;;;19.00;54.10;;;;;;5026660;27;92023;-84
2023/10/15 13:16:03;;;;;;;;;;;18.90;54.40;;;;;;5043406;27;89291;-83
2023/10/15 13:18:30;;;;;;;;;;;18.90;54.50;;;;;;5025153;27;90113;-83
2023/10/15 13:20:57;;;;;;;;;;;18.90;55.30;;;;;;5042562;27;96844;-82
2023/10/15 13:23:23;;;;;;;;;;;18.90;54.70;;;;;;5022948;27;92154;-83
2023/10/15 13:25:49;;;;;;;;;;;18.90;57.00;;;;;;5021954;27;90730;-85
2023/10/15 13:28:15;;;;;;;;;;;18.90;56.00;;;;;;5040055;27;89813;-83
2023/10/15 13:30:41;;;;;;;;;;;18.90;56.20;;;;;;5031063;27;94783;-83
2023/10/15 13:33:07;;;;;;;;;;;18.90;54.90;;;;;;5016199;27;91251;-83
2023/10/15 13:35:33;;;;;;;;;;;18.90;55.10;;;;;;5035768;27;91644;-82
2023/10/15 13:37:58;;;;;;;;;;;18.90;55.20;;;;;;5020120;27;89514;-83
2023/10/15 13:40:24;;;;;;;;;;;18.90;54.90;;;;;;5014519;27;91995;-83
2023/10/15 13:42:49;;;;;;;;;;;18.90;54.90;;;;;;5033538;27;89481;-82
2023/10/15 13:45:15;;;;;;;;;;;18.90;55.20;;;;;;5032904;27;89667;-83
2023/10/15 13:47:41;;;;;;;;;;;18.90;55.60;;;;;;5037450;27;92618;-83
2023/10/15 13:50:12;;;;;;;;;;;18.90;55.30;;;;;;5035872;27;89660;-82
2023/10/15 13:52:39;;;;;;;;;;;18.90;55.50;;;;;;5018593;27;92131;-83
2023/10/15 13:55:05;;;;;;;;;;;18.90;54.90;;;;;;5031318;27;90535;-83
2023/10/15 13:57:31;;;;;;;;;;;18.90;55.60;;;;;;5037975;27;89671;-82
2023/10/15 13:59:57;;;;;;;;;;;18.90;54.40;;;;;;5021832;27;92743;-82
2023/10/15 14:02:23;;;;;;;;;;;18.90;54.80;;;;;;5022313;27;91883;-83
2023/10/15 14:04:49;;;;;;;;;;;18.90;54.70;;;;;;5015066;27;89340;-81
2023/10/15 14:07:15;;;;;;;;;;;18.90;54.90;;;;;;5033098;27;90125;-81
2023/10/15 14:09:40;;;;;;;;;;;18.90;55.00;;;;;;5020191;27;92608;-82
2023/10/15 14:12:06;;;;;;;;;;;18.90;55.40;;;;;;5014283;27;91967;-82
2023/10/15 14:14:32;;;;;;;;;;;18.80;55.60;;;;;;5017143;27;90354;-81
2023/10/15 14:16:57;;;;;;;;;;;18.90;55.60;;;;;;5015709;27;90121;-81
2023/10/15 14:19:22;;;;;;;;;;;18.90;55.70;;;;;;5018795;27;93378;-82
2023/10/15 14:21:48;;;;;;;;;;;18.80;55.70;;;;;;5034573;27;89663;-82
2023/10/15 14:24:13;;;;;;;;;;;18.90;55.40;;;;;;5034585;27;91200;-81
2023/10/15 14:26:40;;;;;;;;;;;18.90;55.90;;;;;;5020541;27;89165;-81
2023/10/15 14:29:05;;;;;;;;;;;18.90;55.70;;;;;;5017371;27;92924;-79